X  Chiuso Dati meteorologici dell'aviazione (METAR)     LGEL Elefsis Airport
Temperatura
68°F Temperatura
45°F Punto di rugiada
43% Umidità



Vento
2 MPH
3 KM/O
1 M/S
2 KTS



Calmo
N
Condizioni attuali

Unknown Unknown
Pressione 1013.88 (hPa) - 29.94 (inHg)
Visibilità 0 (miglio) - 0 (km)
Aeroporto
Codice-Aeroporto LGEL

Posizione: Elefsis Airport
Distanza: 77 (mi)

Metar:
LGEL 152150Z AUTO VRB02KT //// // ////// 20/07 Q1014 RE//

Ore: 16-04-2024 00:50 EEST